Time;durP1;ratioP1;P1;durP2;ratioP2;P2;SDS_P1;SDS_P2;PMS_P1;PMS_P2;Temp;Humidity;BMP_temperature;BMP_pressure;BME280_temperature;BME280_humidity;BME280_pressure;Samples;Min_cycle;Max_cycle;Signal;HPM_P1;HPM_P2
2020/12/03 00:00:51;;;;;;;29.57;21.73;;;;;;;;;;2081581;28;20200;-55
2020/12/03 00:01:52;;;;;;;27.70;21.00;;;;;;;;;;2077287;28;20187;-58
2020/12/03 00:02:52;;;;;;;30.40;22.07;;;;;;;;;;2081184;28;20168;-57
2020/12/03 00:03:54;;;;;;;29.53;22.17;;;;;;;;;;2069848;28;20614;-57
2020/12/03 00:04:54;;;;;;;26.80;20.93;;;;;;;;;;2078993;28;20188;-57
2020/12/03 00:06:00;;;;;;;28.83;22.40;;;;;;;;;;2076024;28;20185;-60
2020/12/03 00:07:01;;;;;;;28.77;21.87;;;;;;;;;;2080871;28;20180;-57
2020/12/03 00:08:02;;;;;;;27.43;21.23;;;;;;;;;;2081067;28;20180;-58
2020/12/03 00:09:05;;;;;;;26.90;21.73;;;;;;;;;;2082042;28;20168;-55
2020/12/03 00:10:05;;;;;;;29.13;22.03;;;;;;;;;;2081393;28;20694;-59
2020/12/03 00:11:06;;;;;;;28.67;21.23;;;;;;;;;;2081018;28;20199;-57
2020/12/03 00:12:06;;;;;;;28.93;21.70;;;;;;;;;;2080940;28;20188;-57
2020/12/03 00:13:12;;;;;;;25.90;20.20;;;;;;;;;;2081118;28;20176;-58
2020/12/03 00:14:12;;;;;;;30.00;21.47;;;;;;;;;;2074929;28;20176;-57
2020/12/03 00:15:12;;;;;;;28.53;21.97;;;;;;;;;;2077474;28;20174;-54
2020/12/03 00:16:13;;;;;;;28.20;22.27;;;;;;;;;;2080502;28;20214;-54
2020/12/03 00:17:13;;;;;;;26.57;20.93;;;;;;;;;;2078591;28;20270;-54
2020/12/03 00:18:14;;;;;;;27.10;21.33;;;;;;;;;;2077592;28;20192;-57
2020/12/03 00:19:14;;;;;;;31.13;23.77;;;;;;;;;;2080821;28;20173;-57
2020/12/03 00:20:16;;;;;;;30.90;21.97;;;;;;;;;;2078306;28;20180;-55
2020/12/03 00:21:16;;;;;;;30.67;23.37;;;;;;;;;;2077955;28;20717;-57
2020/12/03 00:22:17;;;;;;;26.47;21.17;;;;;;;;;;2069168;28;20181;-54
2020/12/03 00:23:17;;;;;;;29.20;23.13;;;;;;;;;;2072235;28;20701;-57
2020/12/03 00:24:19;;;;;;;30.40;23.97;;;;;;;;;;2079713;28;20188;-58
2020/12/03 00:25:19;;;;;;;26.47;20.57;;;;;;;;;;2080074;28;20229;-58
2020/12/03 00:26:20;;;;;;;31.90;22.80;;;;;;;;;;2080285;28;20187;-56
2020/12/03 00:27:20;;;;;;;29.47;21.53;;;;;;;;;;2080712;28;20168;-58
2020/12/03 00:28:26;;;;;;;27.53;21.70;;;;;;;;;;2078056;28;20184;-58
2020/12/03 00:29:26;;;;;;;25.00;20.10;;;;;;;;;;2083754;28;20254;-56
2020/12/03 00:30:26;;;;;;;27.47;21.70;;;;;;;;;;2074451;28;20558;-54
2020/12/03 00:31:27;;;;;;;27.47;21.47;;;;;;;;;;2084799;28;20253;-58
2020/12/03 00:32:27;;;;;;;29.37;22.93;;;;;;;;;;2079613;28;20274;-58
2020/12/03 00:33:27;;;;;;;27.27;21.37;;;;;;;;;;2080718;28;20176;-57
2020/12/03 00:34:28;;;;;;;28.27;21.80;;;;;;;;;;2080670;28;20203;-55
2020/12/03 00:35:28;;;;;;;28.60;21.60;;;;;;;;;;2081066;28;20172;-59
2020/12/03 00:36:28;;;;;;;29.97;22.83;;;;;;;;;;2079986;28;20632;-58
2020/12/03 00:37:28;;;;;;;30.53;22.73;;;;;;;;;;2080170;28;20169;-57
2020/12/03 00:38:29;;;;;;;27.27;20.23;;;;;;;;;;2079562;28;20608;-58
2020/12/03 00:39:29;;;;;;;30.57;21.90;;;;;;;;;;2071946;28;20177;-59
2020/12/03 00:40:29;;;;;;;27.57;20.77;;;;;;;;;;2062530;28;20204;-59
2020/12/03 00:41:29;;;;;;;30.27;22.37;;;;;;;;;;2073075;28;20196;-57
2020/12/03 00:42:29;;;;;;;28.17;20.50;;;;;;;;;;2079938;28;20164;-58
2020/12/03 00:43:30;;;;;;;26.83;21.07;;;;;;;;;;2080192;28;20264;-57
2020/12/03 00:44:30;;;;;;;29.07;20.90;;;;;;;;;;2079159;28;20278;-59
2020/12/03 00:45:30;;;;;;;27.80;20.83;;;;;;;;;;2080951;28;20172;-58
2020/12/03 00:46:31;;;;;;;28.17;21.40;;;;;;;;;;2081225;28;20771;-58
2020/12/03 00:47:32;;;;;;;29.20;21.90;;;;;;;;;;2082665;28;20208;-56
2020/12/03 00:48:33;;;;;;;26.37;21.00;;;;;;;;;;2085605;28;20172;-58
2020/12/03 00:49:34;;;;;;;24.97;21.20;;;;;;;;;;2087172;28;20233;-58
2020/12/03 00:50:34;;;;;;;25.70;19.87;;;;;;;;;;2070131;28;20172;-57
2020/12/03 00:51:34;;;;;;;24.33;19.20;;;;;;;;;;2077975;28;20192;-58
2020/12/03 00:52:35;;;;;;;27.60;21.90;;;;;;;;;;2078578;28;20253;-57
2020/12/03 00:53:35;;;;;;;28.00;21.63;;;;;;;;;;2075087;28;20597;-59
2020/12/03 00:54:36;;;;;;;28.70;20.97;;;;;;;;;;2071663;28;20235;-58
2020/12/03 00:55:37;;;;;;;27.23;21.60;;;;;;;;;;2068236;28;20173;-57
2020/12/03 00:56:37;;;;;;;29.33;22.33;;;;;;;;;;2066087;28;20170;-51
2020/12/03 00:57:38;;;;;;;25.70;21.43;;;;;;;;;;2056424;28;20593;-55
2020/12/03 00:58:38;;;;;;;28.83;21.23;;;;;;;;;;2079355;28;20184;-54
2020/12/03 00:59:39;;;;;;;28.77;22.47;;;;;;;;;;2079817;28;20206;-52
2020/12/03 01:00:39;;;;;;;29.97;22.03;;;;;;;;;;2080794;28;20192;-51
2020/12/03 01:01:40;;;;;;;27.73;21.57;;;;;;;;;;2080517;28;20720;-54
2020/12/03 01:02:40;;;;;;;29.80;21.93;;;;;;;;;;2072917;28;20177;-52
2020/12/03 01:03:40;;;;;;;30.63;22.43;;;;;;;;;;2071539;28;20264;-56
2020/12/03 01:04:41;;;;;;;30.53;22.87;;;;;;;;;;2071004;28;20235;-57
2020/12/03 01:05:41;;;;;;;29.10;22.33;;;;;;;;;;2088545;28;20686;-54
2020/12/03 01:06:44;;;;;;;30.13;22.47;;;;;;;;;;2070542;28;20569;-53
2020/12/03 01:07:45;;;;;;;32.07;22.83;;;;;;;;;;2072499;28;20177;-59
2020/12/03 01:08:45;;;;;;;31.53;24.20;;;;;;;;;;2080098;28;20650;-52
2020/12/03 01:09:45;;;;;;;29.63;22.37;;;;;;;;;;2081237;28;20215;-57
2020/12/03 01:10:46;;;;;;;28.47;22.23;;;;;;;;;;2080446;28;20188;-57
2020/12/03 01:11:46;;;;;;;30.17;22.83;;;;;;;;;;2079599;28;20236;-56
2020/12/03 01:12:46;;;;;;;29.63;23.17;;;;;;;;;;2079340;28;20204;-55
2020/12/03 01:13:46;;;;;;;30.10;24.00;;;;;;;;;;2075369;28;20177;-55
2020/12/03 01:14:47;;;;;;;32.67;22.20;;;;;;;;;;2080884;28;20222;-58
2020/12/03 01:15:47;;;;;;;29.43;22.63;;;;;;;;;;2080564;28;20668;-57
2020/12/03 01:16:47;;;;;;;29.70;23.40;;;;;;;;;;2080389;28;20255;-57
2020/12/03 01:17:48;;;;;;;28.70;21.47;;;;;;;;;;2078550;28;20268;-57
2020/12/03 01:18:48;;;;;;;30.17;22.90;;;;;;;;;;2080369;28;20230;-58
2020/12/03 01:19:48;;;;;;;28.67;22.37;;;;;;;;;;2080273;28;20179;-57
2020/12/03 01:20:49;;;;;;;29.67;22.73;;;;;;;;;;2087240;28;20501;-56
2020/12/03 01:21:49;;;;;;;27.30;21.23;;;;;;;;;;2080568;28;20180;-58
2020/12/03 01:22:49;;;;;;;32.63;23.10;;;;;;;;;;2079211;28;20243;-58
2020/12/03 01:23:51;;;;;;;29.10;23.00;;;;;;;;;;2074102;28;20535;-57
2020/12/03 01:24:51;;;;;;;27.87;21.60;;;;;;;;;;2080511;28;20204;-56
2020/12/03 01:25:51;;;;;;;30.27;24.13;;;;;;;;;;2080129;28;20176;-58
2020/12/03 01:26:51;;;;;;;29.27;22.17;;;;;;;;;;2079557;28;20242;-57
2020/12/03 01:27:52;;;;;;;27.03;21.20;;;;;;;;;;2079740;28;20184;-58
2020/12/03 01:28:52;;;;;;;27.53;21.10;;;;;;;;;;2080100;28;20224;-57
2020/12/03 01:29:53;;;;;;;26.50;21.73;;;;;;;;;;2081978;28;20532;-54
2020/12/03 01:30:53;;;;;;;27.63;21.93;;;;;;;;;;2081844;28;20182;-56
2020/12/03 01:31:53;;;;;;;30.17;22.33;;;;;;;;;;2079163;28;20608;-56
2020/12/03 01:32:54;;;;;;;29.57;21.70;;;;;;;;;;2076299;28;20509;-55
2020/12/03 01:33:54;;;;;;;29.73;21.87;;;;;;;;;;2079347;28;20266;-58
2020/12/03 01:34:54;;;;;;;27.10;21.40;;;;;;;;;;2075169;28;20662;-59
2020/12/03 01:35:54;;;;;;;27.20;21.60;;;;;;;;;;2075831;28;20177;-58
2020/12/03 01:36:55;;;;;;;28.07;20.80;;;;;;;;;;2080558;28;20581;-59
2020/12/03 01:37:55;;;;;;;27.90;21.40;;;;;;;;;;2078785;28;20253;-58
2020/12/03 01:38:55;;;;;;;28.83;22.10;;;;;;;;;;2074839;28;20904;-57
2020/12/03 01:39:55;;;;;;;29.23;21.50;;;;;;;;;;2075919;28;20299;-58
2020/12/03 01:40:56;;;;;;;27.53;21.73;;;;;;;;;;2081832;28;20182;-56
2020/12/03 01:41:56;;;;;;;25.67;20.47;;;;;;;;;;2081401;28;20692;-57
2020/12/03 01:42:56;;;;;;;25.83;21.17;;;;;;;;;;2082242;28;20628;-57
2020/12/03 01:43:56;;;;;;;26.80;21.13;;;;;;;;;;2076722;28;20723;-58
2020/12/03 01:44:57;;;;;;;30.03;21.90;;;;;;;;;;2081923;28;20208;-58
2020/12/03 01:45:58;;;;;;;27.37;21.90;;;;;;;;;;2081742;28;20218;-58
2020/12/03 01:46:58;;;;;;;28.10;21.20;;;;;;;;;;2080754;28;20184;-54
2020/12/03 01:47:59;;;;;;;24.67;19.90;;;;;;;;;;2080907;28;20229;-58
2020/12/03 01:49:13;;;;;;;27.93;21.63;;;;;;;;;;2081887;28;20271;-58
2020/12/03 01:50:13;;;;;;;28.10;21.00;;;;;;;;;;2078436;28;20172;-59
2020/12/03 01:51:24;;;;;;;25.33;22.23;;;;;;;;;;2080675;28;20192;-59
2020/12/03 01:52:25;;;;;;;25.23;20.10;;;;;;;;;;2085367;28;20212;-55
2020/12/03 01:53:25;;;;;;;27.40;20.93;;;;;;;;;;2077665;28;20689;-55
2020/12/03 01:54:25;;;;;;;23.50;20.03;;;;;;;;;;2080003;28;20664;-56
2020/12/03 01:55:25;;;;;;;25.70;19.97;;;;;;;;;;2073157;28;20871;-58
2020/12/03 01:56:26;;;;;;;27.37;21.50;;;;;;;;;;2076513;28;20180;-55
2020/12/03 01:57:44;;;;;;;26.73;21.13;;;;;;;;;;2072688;28;20185;-57
2020/12/03 01:58:45;;;;;;;23.53;19.13;;;;;;;;;;2067820;28;20544;-57
2020/12/03 01:59:50;;;;;;;23.63;19.53;;;;;;;;;;2081693;28;20255;-56
2020/12/03 02:00:50;;;;;;;27.63;21.27;;;;;;;;;;2081195;28;20315;-58
2020/12/03 02:01:51;;;;;;;23.87;19.90;;;;;;;;;;2081373;28;20191;-55
2020/12/03 02:02:52;;;;;;;25.77;20.83;;;;;;;;;;2081882;28;20172;-58
2020/12/03 02:03:52;;;;;;;25.10;20.27;;;;;;;;;;2081012;28;20172;-57
2020/12/03 02:05:05;;;;;;;26.83;20.27;;;;;;;;;;2082006;28;20556;-55
2020/12/03 02:06:05;;;;;;;27.67;20.87;;;;;;;;;;2082421;28;20187;-59
2020/12/03 02:07:07;;;;;;;26.33;19.77;;;;;;;;;;2084436;28;20194;-57
2020/12/03 02:08:07;;;;;;;24.20;20.53;;;;;;;;;;2079383;28;20211;-57
2020/12/03 02:09:09;;;;;;;24.77;20.90;;;;;;;;;;2081491;28;20243;-58
2020/12/03 02:10:10;;;;;;;24.40;20.27;;;;;;;;;;2075222;28;20181;-57
2020/12/03 02:11:10;;;;;;;25.10;21.20;;;;;;;;;;2071945;28;20207;-58
2020/12/03 02:12:10;;;;;;;23.77;19.43;;;;;;;;;;2081806;28;20184;-59
2020/12/03 02:13:11;;;;;;;24.43;19.53;;;;;;;;;;2081222;28;20230;-58
2020/12/03 02:14:11;;;;;;;25.77;19.80;;;;;;;;;;2083076;28;20190;-58
2020/12/03 02:15:11;;;;;;;25.17;19.50;;;;;;;;;;2084800;28;20160;-58
2020/12/03 02:16:12;;;;;;;24.37;20.27;;;;;;;;;;2080629;28;20267;-52
2020/12/03 02:17:12;;;;;;;25.97;20.47;;;;;;;;;;2084549;28;20192;-57
2020/12/03 02:18:12;;;;;;;23.33;19.33;;;;;;;;;;2085195;28;20214;-52
2020/12/03 02:19:14;;;;;;;25.33;20.70;;;;;;;;;;2082074;28;20172;-51
2020/12/03 02:20:16;;;;;;;24.50;19.87;;;;;;;;;;2080816;28;20263;-55
2020/12/03 02:21:16;;;;;;;26.70;21.07;;;;;;;;;;2080988;28;20204;-52
2020/12/03 02:22:17;;;;;;;24.87;20.27;;;;;;;;;;2079007;28;20227;-56
2020/12/03 02:23:17;;;;;;;25.40;20.43;;;;;;;;;;2080773;28;20663;-58
2020/12/03 02:24:17;;;;;;;24.90;20.60;;;;;;;;;;2078228;28;20172;-58
2020/12/03 02:25:19;;;;;;;27.30;21.80;;;;;;;;;;2081091;28;20180;-58
2020/12/03 02:26:19;;;;;;;28.10;20.87;;;;;;;;;;2081859;28;20180;-53
2020/12/03 02:27:21;;;;;;;25.23;21.60;;;;;;;;;;2074959;28;20211;-56
2020/12/03 02:28:21;;;;;;;26.10;20.67;;;;;;;;;;2072370;28;20205;-57
2020/12/03 02:29:22;;;;;;;24.57;20.83;;;;;;;;;;2078811;28;20165;-58
2020/12/03 02:30:22;;;;;;;25.87;21.77;;;;;;;;;;2082239;28;20165;-58
2020/12/03 02:31:22;;;;;;;27.83;21.03;;;;;;;;;;2079028;28;20216;-57
2020/12/03 02:32:22;;;;;;;27.13;21.87;;;;;;;;;;2086330;28;20168;-58
2020/12/03 02:33:22;;;;;;;29.80;23.30;;;;;;;;;;2085811;28;20204;-58
2020/12/03 02:34:23;;;;;;;27.67;22.87;;;;;;;;;;2081143;28;20267;-59
2020/12/03 02:35:23;;;;;;;28.67;21.77;;;;;;;;;;2080253;28;20284;-56
2020/12/03 02:36:48;;;;;;;25.97;20.60;;;;;;;;;;2079260;28;20184;-54
2020/12/03 02:38:20;;;;;;;27.37;21.80;;;;;;;;;;2073413;28;20200;-56
2020/12/03 02:39:22;;;;;;;29.77;22.10;;;;;;;;;;2074445;28;20193;-55
2020/12/03 02:40:22;;;;;;;27.47;21.97;;;;;;;;;;2077657;28;20180;-56
2020/12/03 02:41:22;;;;;;;29.93;22.70;;;;;;;;;;2074676;28;20240;-57
2020/12/03 02:42:23;;;;;;;30.83;23.47;;;;;;;;;;2078337;28;20279;-56
2020/12/03 02:43:23;;;;;;;29.43;22.43;;;;;;;;;;2074251;28;20181;-56
2020/12/03 02:44:24;;;;;;;31.33;23.30;;;;;;;;;;2073970;28;20514;-56
2020/12/03 02:45:24;;;;;;;29.47;22.03;;;;;;;;;;2078648;28;20195;-51
2020/12/03 02:46:24;;;;;;;29.00;22.37;;;;;;;;;;2069615;28;20217;-59
2020/12/03 02:48:02;;;;;;;25.53;20.43;;;;;;;;;;2072044;28;20153;-56
2020/12/03 02:49:41;;;;;;;31.70;21.70;;;;;;;;;;2048509;29;20183;-55
2020/12/03 02:50:41;;;;;;;30.53;21.80;;;;;;;;;;2047362;28;20202;-58
2020/12/03 02:51:42;;;;;;;29.43;21.73;;;;;;;;;;2048611;29;20296;-57
2020/12/03 02:53:01;;;;;;;27.93;21.63;;;;;;;;;;2045558;28;20175;-58
2020/12/03 02:54:25;;;;;;;29.03;21.80;;;;;;;;;;2047671;29;20187;-54
2020/12/03 02:55:45;;;;;;;28.90;19.93;;;;;;;;;;2041167;29;20251;-56
2020/12/03 02:56:45;;;;;;;29.60;22.27;;;;;;;;;;2041078;29;20250;-54
2020/12/03 02:57:46;;;;;;;27.30;21.57;;;;;;;;;;2046428;29;20199;-57
2020/12/03 03:01:24;;;;;;;26.80;20.67;;;;;;;;;;2045298;28;20696;-58
2020/12/03 03:02:24;;;;;;;30.17;22.67;;;;;;;;;;2045773;29;20183;-57
2020/12/03 03:03:24;;;;;;;26.20;20.27;;;;;;;;;;2047378;29;20199;-54
2020/12/03 03:04:25;;;;;;;27.33;21.37;;;;;;;;;;2042572;29;20171;-54
2020/12/03 03:05:44;;;;;;;26.67;21.00;;;;;;;;;;2071341;28;20184;-58
2020/12/03 03:06:44;;;;;;;27.80;21.13;;;;;;;;;;2064024;28;20186;-54
2020/12/03 03:07:44;;;;;;;30.33;22.03;;;;;;;;;;2071041;28;20188;-54
2020/12/03 03:08:45;;;;;;;28.93;21.40;;;;;;;;;;2070134;28;20216;-55
2020/12/03 03:09:45;;;;;;;25.13;20.40;;;;;;;;;;2079724;28;20176;-55
2020/12/03 03:11:36;;;;;;;25.93;19.33;;;;;;;;;;2067168;28;20287;-58
2020/12/03 03:12:55;;;;;;;23.60;19.57;;;;;;;;;;2058470;28;20204;-58
2020/12/03 03:13:56;;;;;;;23.50;19.03;;;;;;;;;;2065353;28;20189;-54
2020/12/03 03:14:56;;;;;;;25.07;19.67;;;;;;;;;;2066891;28;20579;-58
2020/12/03 03:15:56;;;;;;;23.37;19.43;;;;;;;;;;2070228;28;20180;-54
2020/12/03 03:18:15;;;;;;;24.87;18.87;;;;;;;;;;2066250;28;20169;-58
2020/12/03 03:19:16;;;;;;;25.23;19.67;;;;;;;;;;2068909;28;20553;-56
2020/12/03 03:20:16;;;;;;;25.07;19.10;;;;;;;;;;2066063;28;20606;-56
2020/12/03 03:22:18;;;;;;;24.90;18.13;;;;;;;;;;2061128;28;20219;-53
2020/12/03 03:23:18;;;;;;;25.03;19.27;;;;;;;;;;2062674;28;20189;-51
2020/12/03 03:24:37;;;;;;;26.60;19.57;;;;;;;;;;2064989;28;20222;-52
2020/12/03 03:25:37;;;;;;;24.33;19.47;;;;;;;;;;2058930;28;20265;-56
2020/12/03 03:26:37;;;;;;;27.80;19.90;;;;;;;;;;2064140;28;20778;-54
2020/12/03 03:27:38;;;;;;;25.90;20.37;;;;;;;;;;2064023;28;20663;-53
2020/12/03 03:28:38;;;;;;;28.40;20.70;;;;;;;;;;2065314;28;20221;-51
2020/12/03 03:29:38;;;;;;;31.43;20.80;;;;;;;;;;2057749;28;20562;-49
2020/12/03 03:30:39;;;;;;;27.17;20.60;;;;;;;;;;2064593;28;20184;-51
2020/12/03 03:31:39;;;;;;;28.87;20.17;;;;;;;;;;2061488;28;20205;-53
2020/12/03 03:32:39;;;;;;;30.37;21.17;;;;;;;;;;2071960;28;20177;-55
2020/12/03 03:33:40;;;;;;;29.67;19.87;;;;;;;;;;2064996;28;20260;-55
2020/12/03 03:34:40;;;;;;;27.23;20.90;;;;;;;;;;2072757;28;20266;-55
2020/12/03 03:35:40;;;;;;;31.90;20.87;;;;;;;;;;2071316;28;20184;-52
2020/12/03 03:36:41;;;;;;;29.10;21.00;;;;;;;;;;2070641;28;20169;-56
2020/12/03 03:38:07;;;;;;;28.87;22.13;;;;;;;;;;2072237;28;20604;-52
2020/12/03 03:39:12;;;;;;;28.30;21.53;;;;;;;;;;2070213;28;20184;-53
2020/12/03 03:40:12;;;;;;;30.53;21.37;;;;;;;;;;2068216;28;20177;-54
2020/12/03 03:41:13;;;;;;;33.33;22.73;;;;;;;;;;2069260;28;20196;-53
2020/12/03 03:42:13;;;;;;;35.27;22.93;;;;;;;;;;2072475;28;20562;-54
2020/12/03 03:43:13;;;;;;;32.43;21.90;;;;;;;;;;2072615;28;20188;-51
2020/12/03 03:44:14;;;;;;;34.43;23.50;;;;;;;;;;2072895;28;20172;-50
2020/12/03 03:45:14;;;;;;;29.77;21.37;;;;;;;;;;2070160;28;20598;-54
2020/12/03 03:46:15;;;;;;;35.77;24.23;;;;;;;;;;2072911;28;20282;-53
2020/12/03 03:47:33;;;;;;;31.67;22.13;;;;;;;;;;2071186;28;20629;-53
2020/12/03 03:48:34;;;;;;;31.40;21.67;;;;;;;;;;2071339;28;20212;-52
2020/12/03 03:49:34;;;;;;;35.67;24.03;;;;;;;;;;2071898;28;20169;-53
2020/12/03 03:50:34;;;;;;;33.73;22.67;;;;;;;;;;2069577;28;20184;-54
2020/12/03 03:52:53;;;;;;;36.73;23.70;;;;;;;;;;2071351;28;20216;-54
2020/12/03 03:53:54;;;;;;;33.77;22.83;;;;;;;;;;2069153;28;20185;-53
2020/12/03 03:54:54;;;;;;;33.80;24.30;;;;;;;;;;2071369;28;20208;-54
2020/12/03 03:55:54;;;;;;;34.73;23.97;;;;;;;;;;2069247;28;20181;-53
2020/12/03 03:56:54;;;;;;;36.80;23.77;;;;;;;;;;2068092;28;20560;-54
2020/12/03 03:57:54;;;;;;;37.63;25.27;;;;;;;;;;2072173;28;20204;-52
2020/12/03 03:58:55;;;;;;;33.87;24.50;;;;;;;;;;2071158;28;20180;-53
2020/12/03 03:59:55;;;;;;;35.33;24.87;;;;;;;;;;2072554;28;20263;-55
2020/12/03 04:00:55;;;;;;;38.20;26.37;;;;;;;;;;2072581;28;20173;-52
2020/12/03 04:01:56;;;;;;;37.80;25.20;;;;;;;;;;2072621;28;20558;-56
2020/12/03 04:02:56;;;;;;;35.57;24.50;;;;;;;;;;2073014;28;20169;-54
2020/12/03 04:03:57;;;;;;;37.13;25.80;;;;;;;;;;2066665;28;20273;-54
2020/12/03 04:04:57;;;;;;;35.23;25.30;;;;;;;;;;2071597;28;20542;-54
2020/12/03 04:05:57;;;;;;;37.50;24.43;;;;;;;;;;2070220;28;20262;-52
2020/12/03 04:06:57;;;;;;;37.40;25.90;;;;;;;;;;2071843;28;20180;-56
2020/12/03 04:07:58;;;;;;;43.43;27.33;;;;;;;;;;2067019;28;20178;-55
2020/12/03 04:08:58;;;;;;;40.53;26.13;;;;;;;;;;2072095;28;20176;-55
2020/12/03 04:09:58;;;;;;;38.27;26.90;;;;;;;;;;2067217;28;20614;-55
2020/12/03 04:10:58;;;;;;;40.00;25.40;;;;;;;;;;2071521;28;20180;-53
2020/12/03 04:11:59;;;;;;;37.87;25.57;;;;;;;;;;2068182;28;20247;-51
2020/12/03 04:12:59;;;;;;;34.30;24.70;;;;;;;;;;2072129;28;20212;-51
2020/12/03 04:13:59;;;;;;;37.03;24.07;;;;;;;;;;2072959;28;20189;-52
2020/12/03 04:15:00;;;;;;;39.10;25.93;;;;;;;;;;2072081;28;20212;-51
2020/12/03 04:16:00;;;;;;;40.67;26.90;;;;;;;;;;2073003;28;20169;-55
2020/12/03 04:17:00;;;;;;;41.10;27.17;;;;;;;;;;2071829;28;20271;-53
2020/12/03 04:18:01;;;;;;;38.93;26.27;;;;;;;;;;2072050;28;20161;-52
2020/12/03 04:19:01;;;;;;;40.87;25.73;;;;;;;;;;2072540;28;20705;-52
2020/12/03 04:20:03;;;;;;;38.90;26.53;;;;;;;;;;2072333;28;20262;-52
2020/12/03 04:21:05;;;;;;;38.67;23.93;;;;;;;;;;2072058;28;20173;-51
2020/12/03 04:22:05;;;;;;;37.93;25.43;;;;;;;;;;2071229;28;20699;-53
2020/12/03 04:23:05;;;;;;;41.93;26.47;;;;;;;;;;2070356;28;20184;-53
2020/12/03 04:24:05;;;;;;;38.47;25.47;;;;;;;;;;2068484;28;20581;-51
2020/12/03 04:25:06;;;;;;;41.17;27.40;;;;;;;;;;2071478;28;20188;-52
2020/12/03 04:26:06;;;;;;;41.73;25.37;;;;;;;;;;2071914;28;20195;-51
2020/12/03 04:27:06;;;;;;;39.77;26.57;;;;;;;;;;2071352;28;20192;-50
2020/12/03 04:28:06;;;;;;;39.43;25.60;;;;;;;;;;2068405;28;20176;-52
2020/12/03 04:29:06;;;;;;;39.07;25.77;;;;;;;;;;2063681;28;20177;-51
2020/12/03 04:30:08;;;;;;;39.30;26.27;;;;;;;;;;2062980;28;20667;-53
2020/12/03 04:31:09;;;;;;;36.10;25.40;;;;;;;;;;2071901;28;20180;-51
2020/12/03 04:32:09;;;;;;;40.37;26.27;;;;;;;;;;2073161;28;20212;-52
2020/12/03 04:33:10;;;;;;;39.10;26.53;;;;;;;;;;2072899;28;20184;-52
2020/12/03 04:34:11;;;;;;;41.23;26.60;;;;;;;;;;2071058;28;20181;-51
2020/12/03 04:35:11;;;;;;;41.20;27.33;;;;;;;;;;2069861;28;20837;-51
2020/12/03 04:36:12;;;;;;;40.53;25.43;;;;;;;;;;2072588;28;20535;-55
2020/12/03 04:37:12;;;;;;;38.37;25.50;;;;;;;;;;2071674;28;20672;-52
2020/12/03 04:38:13;;;;;;;41.70;26.87;;;;;;;;;;2073366;28;20176;-51
2020/12/03 04:39:13;;;;;;;39.30;26.20;;;;;;;;;;2069144;28;20800;-51
2020/12/03 04:40:31;;;;;;;40.23;25.77;;;;;;;;;;2068778;28;20181;-51
2020/12/03 04:41:32;;;;;;;40.00;25.87;;;;;;;;;;2071939;28;20740;-51
2020/12/03 04:42:33;;;;;;;38.73;25.27;;;;;;;;;;2072274;28;20204;-50
2020/12/03 04:43:33;;;;;;;40.67;26.90;;;;;;;;;;2072388;28;20177;-51
2020/12/03 04:44:36;;;;;;;39.93;26.70;;;;;;;;;;2072484;28;20181;-51
2020/12/03 04:45:42;;;;;;;39.53;26.00;;;;;;;;;;2072401;28;20176;-56
2020/12/03 04:46:45;;;;;;;36.00;25.77;;;;;;;;;;2076948;28;20184;-56
2020/12/03 04:47:48;;;;;;;46.33;27.60;;;;;;;;;;2079650;28;20187;-51
2020/12/03 04:48:48;;;;;;;39.80;26.73;;;;;;;;;;2071541;28;20231;-55
2020/12/03 04:50:17;;;;;;;41.37;26.97;;;;;;;;;;2071833;28;20627;-54
2020/12/03 04:51:30;;;;;;;37.17;25.50;;;;;;;;;;2047063;29;20214;-52
2020/12/03 04:52:37;;;;;;;40.63;25.73;;;;;;;;;;2049256;28;20186;-52
2020/12/03 04:53:49;;;;;;;40.53;27.07;;;;;;;;;;2072594;28;20211;-54
2020/12/03 04:54:50;;;;;;;38.43;24.73;;;;;;;;;;2071973;28;20212;-56
2020/12/03 04:55:58;;;;;;;38.50;25.90;;;;;;;;;;2067947;28;20205;-54
2020/12/03 04:57:09;;;;;;;39.40;27.17;;;;;;;;;;2072472;28;20181;-50
2020/12/03 04:58:12;;;;;;;36.73;25.13;;;;;;;;;;2068161;28;20689;-53
2020/12/03 04:59:22;;;;;;;41.87;27.13;;;;;;;;;;2070336;28;20257;-52
2020/12/03 05:00:33;;;;;;;40.67;26.43;;;;;;;;;;2070317;28;20697;-54
2020/12/03 05:01:42;;;;;;;38.37;25.97;;;;;;;;;;2072058;28;20197;-56
2020/12/03 05:03:00;;;;;;;42.50;26.70;;;;;;;;;;2065302;28;20182;-53
2020/12/03 05:04:03;;;;;;;41.60;25.83;;;;;;;;;;2072181;28;20179;-53
2020/12/03 05:05:21;;;;;;;36.20;25.03;;;;;;;;;;2069902;28;20181;-54
2020/12/03 05:06:30;;;;;;;36.70;25.60;;;;;;;;;;2071129;28;20173;-58
2020/12/03 05:07:30;;;;;;;40.83;27.40;;;;;;;;;;2071752;28;20181;-56
2020/12/03 05:08:37;;;;;;;41.83;25.23;;;;;;;;;;2069943;28;20170;-54
2020/12/03 05:09:45;;;;;;;40.33;26.10;;;;;;;;;;2069726;28;20213;-55
2020/12/03 05:10:46;;;;;;;36.87;25.37;;;;;;;;;;2068404;28;20191;-55
2020/12/03 05:11:48;;;;;;;34.60;24.73;;;;;;;;;;2073508;28;20205;-53
2020/12/03 05:12:49;;;;;;;36.90;24.13;;;;;;;;;;2073052;28;20177;-51
2020/12/03 05:13:52;;;;;;;36.17;25.13;;;;;;;;;;2067401;28;20586;-55
2020/12/03 05:14:54;;;;;;;36.33;25.90;;;;;;;;;;2073506;28;20201;-56
2020/12/03 05:15:59;;;;;;;38.50;25.43;;;;;;;;;;2073647;28;20200;-53
2020/12/03 05:17:18;;;;;;;40.97;25.87;;;;;;;;;;2073099;28;20173;-52
2020/12/03 05:18:29;;;;;;;39.13;24.90;;;;;;;;;;2073845;28;20632;-52
2020/12/03 05:19:38;;;;;;;36.57;24.43;;;;;;;;;;2072411;28;20180;-54
2020/12/03 05:20:44;;;;;;;37.07;24.00;;;;;;;;;;2072839;28;20188;-51
2020/12/03 05:21:44;;;;;;;34.03;23.60;;;;;;;;;;2070540;28;20238;-54
2020/12/03 05:22:55;;;;;;;35.10;23.23;;;;;;;;;;2072114;28;20169;-56
2020/12/03 05:23:55;;;;;;;33.33;24.43;;;;;;;;;;2067689;28;20585;-52
2020/12/03 05:24:56;;;;;;;34.23;24.27;;;;;;;;;;2070822;28;20177;-53
2020/12/03 05:25:56;;;;;;;32.20;23.47;;;;;;;;;;2073511;28;20225;-50
2020/12/03 05:26:56;;;;;;;36.67;23.87;;;;;;;;;;2070864;28;20178;-55
2020/12/03 05:27:59;;;;;;;36.47;24.43;;;;;;;;;;2073246;28;20187;-54
2020/12/03 05:29:01;;;;;;;33.83;23.87;;;;;;;;;;2073341;28;20564;-53
2020/12/03 05:30:03;;;;;;;35.87;23.70;;;;;;;;;;2073403;28;20185;-52
2020/12/03 05:31:12;;;;;;;34.80;23.87;;;;;;;;;;2072752;28;20177;-51
2020/12/03 05:32:13;;;;;;;36.63;23.80;;;;;;;;;;2073809;28;20604;-51
2020/12/03 05:33:13;;;;;;;36.43;23.83;;;;;;;;;;2069907;28;20173;-57
2020/12/03 05:34:20;;;;;;;34.30;23.50;;;;;;;;;;2072957;28;20169;-54
2020/12/03 05:35:21;;;;;;;33.77;22.87;;;;;;;;;;2075820;28;20196;-56
2020/12/03 05:36:24;;;;;;;31.83;23.47;;;;;;;;;;2075826;28;20580;-51
2020/12/03 05:37:26;;;;;;;33.83;24.20;;;;;;;;;;2069664;28;20170;-54
2020/12/03 05:38:26;;;;;;;33.17;23.27;;;;;;;;;;2073314;28;20173;-55
2020/12/03 05:39:30;;;;;;;33.13;23.70;;;;;;;;;;2068470;28;20221;-53
2020/12/03 05:40:30;;;;;;;35.17;22.83;;;;;;;;;;2073275;28;20664;-57
2020/12/03 05:41:32;;;;;;;29.10;21.60;;;;;;;;;;2073027;28;20189;-54
2020/12/03 05:42:33;;;;;;;33.47;23.40;;;;;;;;;;2077460;28;20169;-55
2020/12/03 05:43:34;;;;;;;29.37;21.83;;;;;;;;;;2077077;28;20241;-57
2020/12/03 05:44:34;;;;;;;34.77;23.10;;;;;;;;;;2074208;28;20179;-51
2020/12/03 05:45:35;;;;;;;29.60;22.60;;;;;;;;;;2073524;28;20176;-54
2020/12/03 05:46:35;;;;;;;29.23;22.33;;;;;;;;;;2072855;28;20224;-51
2020/12/03 05:47:37;;;;;;;32.03;22.80;;;;;;;;;;2072994;28;20179;-55
2020/12/03 05:48:37;;;;;;;32.50;22.30;;;;;;;;;;2072974;28;20173;-53
2020/12/03 05:49:39;;;;;;;30.93;22.77;;;;;;;;;;2073588;28;20185;-57
2020/12/03 05:50:40;;;;;;;32.97;22.07;;;;;;;;;;2072940;28;20196;-53
2020/12/03 05:51:41;;;;;;;30.90;22.90;;;;;;;;;;2064426;28;20205;-54
2020/12/03 05:52:56;;;;;;;32.03;22.77;;;;;;;;;;2072467;28;20634;-56
2020/12/03 05:54:00;;;;;;;30.07;21.93;;;;;;;;;;2072999;28;20220;-56
2020/12/03 05:55:03;;;;;;;33.77;23.20;;;;;;;;;;2072241;28;20232;-52
2020/12/03 05:56:11;;;;;;;34.10;23.97;;;;;;;;;;2072906;28;20181;-56
2020/12/03 05:57:29;;;;;;;29.30;21.63;;;;;;;;;;2072891;28;20201;-53
2020/12/03 05:58:31;;;;;;;34.80;22.57;;;;;;;;;;2073584;28;20585;-56
2020/12/03 05:59:31;;;;;;;30.60;22.07;;;;;;;;;;2071970;28;20168;-56
2020/12/03 06:00:31;;;;;;;29.70;20.80;;;;;;;;;;2070157;28;20173;-53
2020/12/03 06:01:31;;;;;;;33.10;23.27;;;;;;;;;;2074069;28;20201;-54
2020/12/03 06:02:39;;;;;;;32.07;22.23;;;;;;;;;;2068890;28;20217;-50
2020/12/03 06:03:49;;;;;;;30.13;22.17;;;;;;;;;;2073076;28;20157;-57
2020/12/03 06:04:52;;;;;;;31.23;21.57;;;;;;;;;;2065858;28;20189;-57
2020/12/03 06:06:07;;;;;;;32.50;22.60;;;;;;;;;;2064922;28;20181;-51
2020/12/03 06:07:07;;;;;;;30.47;21.23;;;;;;;;;;2072331;28;20187;-51
2020/12/03 06:08:13;;;;;;;31.80;21.77;;;;;;;;;;2073795;28;20169;-53
2020/12/03 06:09:32;;;;;;;33.40;23.23;;;;;;;;;;2074201;28;20185;-53
2020/12/03 06:10:39;;;;;;;36.17;22.60;;;;;;;;;;2073986;28;20274;-54
2020/12/03 06:11:39;;;;;;;33.03;22.03;;;;;;;;;;2073381;28;20214;-54